sensor_id;sensor_type;location;lat;lon;timestamp;P1;durP1;ratioP1;P2;durP2;ratioP2
59294;SDS011;45067;44.654;20.200;2023-02-13T00:00:24;125.72;;;64.70;;
59294;SDS011;45067;44.654;20.200;2023-02-13T00:02:55;123.90;;;64.78;;
59294;SDS011;45067;44.654;20.200;2023-02-13T00:05:21;107.85;;;61.53;;
59294;SDS011;45067;44.654;20.200;2023-02-13T00:07:51;121.80;;;65.57;;
59294;SDS011;45067;44.654;20.200;2023-02-13T00:10:17;109.32;;;62.75;;
59294;SDS011;45067;44.654;20.200;2023-02-13T00:12:43;107.20;;;62.25;;
59294;SDS011;45067;44.654;20.200;2023-02-13T00:15:09;116.05;;;65.32;;
59294;SDS011;45067;44.654;20.200;2023-02-13T00:17:35;123.25;;;70.28;;
59294;SDS011;45067;44.654;20.200;2023-02-13T00:20:03;128.85;;;72.05;;
59294;SDS011;45067;44.654;20.200;2023-02-13T00:22:35;131.70;;;73.57;;
59294;SDS011;45067;44.654;20.200;2023-02-13T00:25:06;130.55;;;72.00;;
59294;SDS011;45067;44.654;20.200;2023-02-13T00:27:34;141.63;;;76.70;;
59294;SDS011;45067;44.654;20.200;2023-02-13T00:30:00;145.60;;;79.20;;
59294;SDS011;45067;44.654;20.200;2023-02-13T00:32:58;147.55;;;81.90;;
59294;SDS011;45067;44.654;20.200;2023-02-13T00:35:30;203.45;;;101.30;;
59294;SDS011;45067;44.654;20.200;2023-02-13T00:38:20;215.32;;;104.80;;
59294;SDS011;45067;44.654;20.200;2023-02-13T00:40:46;249.07;;;117.55;;
59294;SDS011;45067;44.654;20.200;2023-02-13T00:43:16;262.67;;;120.78;;
59294;SDS011;45067;44.654;20.200;2023-02-13T00:45:55;214.50;;;102.30;;
59294;SDS011;45067;44.654;20.200;2023-02-13T00:48:26;151.27;;;81.22;;
59294;SDS011;45067;44.654;20.200;2023-02-13T00:50:55;143.77;;;78.20;;
59294;SDS011;45067;44.654;20.200;2023-02-13T00:53:26;151.73;;;80.25;;
59294;SDS011;45067;44.654;20.200;2023-02-13T00:55:58;148.07;;;77.72;;
59294;SDS011;45067;44.654;20.200;2023-02-13T00:58:50;141.85;;;77.00;;
59294;SDS011;45067;44.654;20.200;2023-02-13T01:01:17;142.13;;;77.38;;
59294;SDS011;45067;44.654;20.200;2023-02-13T01:03:43;148.43;;;78.30;;
59294;SDS011;45067;44.654;20.200;2023-02-13T01:06:11;150.00;;;80.00;;
59294;SDS011;45067;44.654;20.200;2023-02-13T01:08:40;137.50;;;77.45;;
59294;SDS011;45067;44.654;20.200;2023-02-13T01:11:08;139.25;;;75.95;;
59294;SDS011;45067;44.654;20.200;2023-02-13T01:13:40;147.77;;;76.00;;
59294;SDS011;45067;44.654;20.200;2023-02-13T01:16:08;137.20;;;72.72;;
59294;SDS011;45067;44.654;20.200;2023-02-13T01:18:57;136.25;;;74.30;;
59294;SDS011;45067;44.654;20.200;2023-02-13T01:21:26;126.07;;;69.03;;
59294;SDS011;45067;44.654;20.200;2023-02-13T01:23:54;126.05;;;70.70;;
59294;SDS011;45067;44.654;20.200;2023-02-13T01:26:25;128.73;;;71.90;;
59294;SDS011;45067;44.654;20.200;2023-02-13T01:28:55;129.55;;;70.60;;
59294;SDS011;45067;44.654;20.200;2023-02-13T01:31:39;132.23;;;72.50;;
59294;SDS011;45067;44.654;20.200;2023-02-13T01:34:06;131.85;;;70.93;;
59294;SDS011;45067;44.654;20.200;2023-02-13T01:36:32;135.75;;;71.07;;
59294;SDS011;45067;44.654;20.200;2023-02-13T01:39:16;137.15;;;73.68;;
59294;SDS011;45067;44.654;20.200;2023-02-13T01:41:42;150.30;;;76.82;;
59294;SDS011;45067;44.654;20.200;2023-02-13T01:46:59;149.77;;;80.22;;
59294;SDS011;45067;44.654;20.200;2023-02-13T01:49:28;162.00;;;83.32;;
59294;SDS011;45067;44.654;20.200;2023-02-13T01:51:59;145.20;;;78.50;;
59294;SDS011;45067;44.654;20.200;2023-02-13T01:54:31;154.82;;;83.88;;
59294;SDS011;45067;44.654;20.200;2023-02-13T01:57:08;171.57;;;86.40;;
59294;SDS011;45067;44.654;20.200;2023-02-13T01:59:39;162.98;;;85.20;;
59294;SDS011;45067;44.654;20.200;2023-02-13T02:02:08;164.77;;;88.13;;
59294;SDS011;45067;44.654;20.200;2023-02-13T02:04:35;163.40;;;83.45;;
59294;SDS011;45067;44.654;20.200;2023-02-13T02:07:09;163.25;;;84.05;;
59294;SDS011;45067;44.654;20.200;2023-02-13T02:09:36;157.40;;;83.80;;
59294;SDS011;45067;44.654;20.200;2023-02-13T02:12:07;161.27;;;83.90;;
59294;SDS011;45067;44.654;20.200;2023-02-13T02:14:34;162.35;;;84.47;;
59294;SDS011;45067;44.654;20.200;2023-02-13T02:17:01;163.60;;;85.15;;
59294;SDS011;45067;44.654;20.200;2023-02-13T02:22:00;149.63;;;82.65;;
59294;SDS011;45067;44.654;20.200;2023-02-13T02:35:11;133.95;;;73.60;;
59294;SDS011;45067;44.654;20.200;2023-02-13T02:45:47;127.70;;;66.93;;
59294;SDS011;45067;44.654;20.200;2023-02-13T02:51:09;134.93;;;72.90;;
59294;SDS011;45067;44.654;20.200;2023-02-13T02:59:17;133.20;;;72.22;;
59294;SDS011;45067;44.654;20.200;2023-02-13T03:01:55;130.85;;;70.40;;
59294;SDS011;45067;44.654;20.200;2023-02-13T03:04:47;124.18;;;68.88;;
59294;SDS011;45067;44.654;20.200;2023-02-13T03:07:34;128.60;;;69.70;;
59294;SDS011;45067;44.654;20.200;2023-02-13T03:10:04;132.57;;;72.43;;
59294;SDS011;45067;44.654;20.200;2023-02-13T03:12:53;133.93;;;67.97;;
59294;SDS011;45067;44.654;20.200;2023-02-13T03:15:40;134.77;;;72.53;;
59294;SDS011;45067;44.654;20.200;2023-02-13T03:18:25;92.20;;;50.08;;
59294;SDS011;45067;44.654;20.200;2023-02-13T03:21:14;99.57;;;53.38;;
59294;SDS011;45067;44.654;20.200;2023-02-13T03:24:12;103.43;;;57.00;;
59294;SDS011;45067;44.654;20.200;2023-02-13T03:29:27;96.45;;;52.78;;
59294;SDS011;45067;44.654;20.200;2023-02-13T03:35:36;105.47;;;56.97;;
59294;SDS011;45067;44.654;20.200;2023-02-13T03:38:38;100.07;;;57.33;;
59294;SDS011;45067;44.654;20.200;2023-02-13T03:41:10;111.78;;;62.22;;
59294;SDS011;45067;44.654;20.200;2023-02-13T03:43:52;100.93;;;58.92;;
59294;SDS011;45067;44.654;20.200;2023-02-13T03:46:21;100.60;;;57.00;;
59294;SDS011;45067;44.654;20.200;2023-02-13T03:51:38;106.90;;;58.58;;
59294;SDS011;45067;44.654;20.200;2023-02-13T03:54:22;104.05;;;57.13;;
59294;SDS011;45067;44.654;20.200;2023-02-13T03:59:58;99.25;;;55.33;;
59294;SDS011;45067;44.654;20.200;2023-02-13T04:03:16;100.75;;;55.50;;
59294;SDS011;45067;44.654;20.200;2023-02-13T04:05:52;112.78;;;61.33;;
59294;SDS011;45067;44.654;20.200;2023-02-13T04:08:28;115.60;;;64.10;;
59294;SDS011;45067;44.654;20.200;2023-02-13T04:14:10;113.18;;;62.25;;
59294;SDS011;45067;44.654;20.200;2023-02-13T04:19:53;112.70;;;60.88;;
59294;SDS011;45067;44.654;20.200;2023-02-13T04:22:31;111.35;;;59.42;;
59294;SDS011;45067;44.654;20.200;2023-02-13T04:24:58;106.45;;;60.58;;
59294;SDS011;45067;44.654;20.200;2023-02-13T04:27:34;99.55;;;54.20;;
59294;SDS011;45067;44.654;20.200;2023-02-13T04:30:16;103.35;;;58.05;;
59294;SDS011;45067;44.654;20.200;2023-02-13T04:36:03;114.75;;;63.50;;
59294;SDS011;45067;44.654;20.200;2023-02-13T04:38:34;114.72;;;63.55;;
59294;SDS011;45067;44.654;20.200;2023-02-13T04:41:20;111.47;;;61.67;;
59294;SDS011;45067;44.654;20.200;2023-02-13T04:44:02;113.60;;;62.00;;
59294;SDS011;45067;44.654;20.200;2023-02-13T04:46:47;108.47;;;58.60;;
59294;SDS011;45067;44.654;20.200;2023-02-13T04:52:12;108.07;;;60.28;;
59294;SDS011;45067;44.654;20.200;2023-02-13T04:54:39;109.03;;;59.67;;
59294;SDS011;45067;44.654;20.200;2023-02-13T04:57:18;113.05;;;62.83;;
59294;SDS011;45067;44.654;20.200;2023-02-13T04:59:52;114.43;;;62.00;;
59294;SDS011;45067;44.654;20.200;2023-02-13T05:02:34;111.97;;;62.40;;
59294;SDS011;45067;44.654;20.200;2023-02-13T05:05:05;108.97;;;59.35;;
59294;SDS011;45067;44.654;20.200;2023-02-13T05:07:41;102.07;;;57.03;;
59294;SDS011;45067;44.654;20.200;2023-02-13T05:13:23;114.85;;;60.58;;
59294;SDS011;45067;44.654;20.200;2023-02-13T05:16:35;101.75;;;54.42;;
59294;SDS011;45067;44.654;20.200;2023-02-13T05:19:02;98.53;;;56.42;;
59294;SDS011;45067;44.654;20.200;2023-02-13T05:21:31;94.85;;;53.95;;
59294;SDS011;45067;44.654;20.200;2023-02-13T05:24:21;101.50;;;58.45;;
59294;SDS011;45067;44.654;20.200;2023-02-13T05:35:49;100.65;;;56.78;;
59294;SDS011;45067;44.654;20.200;2023-02-13T05:38:16;96.72;;;54.95;;
59294;SDS011;45067;44.654;20.200;2023-02-13T05:41:14;102.15;;;58.03;;
59294;SDS011;45067;44.654;20.200;2023-02-13T05:43:50;96.82;;;54.65;;
59294;SDS011;45067;44.654;20.200;2023-02-13T05:49:10;99.97;;;56.70;;
59294;SDS011;45067;44.654;20.200;2023-02-13T05:51:45;100.97;;;55.83;;
59294;SDS011;45067;44.654;20.200;2023-02-13T05:54:22;101.20;;;56.75;;
59294;SDS011;45067;44.654;20.200;2023-02-13T05:57:10;109.15;;;60.55;;
59294;SDS011;45067;44.654;20.200;2023-02-13T06:00:04;116.00;;;65.00;;
59294;SDS011;45067;44.654;20.200;2023-02-13T06:02:49;112.30;;;62.00;;
59294;SDS011;45067;44.654;20.200;2023-02-13T06:05:21;110.85;;;62.03;;
59294;SDS011;45067;44.654;20.200;2023-02-13T06:13:34;125.75;;;70.20;;
59294;SDS011;45067;44.654;20.200;2023-02-13T06:16:43;120.95;;;66.00;;
59294;SDS011;45067;44.654;20.200;2023-02-13T06:24:51;114.13;;;64.03;;
59294;SDS011;45067;44.654;20.200;2023-02-13T06:36:28;120.57;;;67.05;;
59294;SDS011;45067;44.654;20.200;2023-02-13T06:39:03;120.85;;;66.30;;
59294;SDS011;45067;44.654;20.200;2023-02-13T06:41:43;119.82;;;68.60;;
59294;SDS011;45067;44.654;20.200;2023-02-13T06:44:47;132.70;;;71.22;;
59294;SDS011;45067;44.654;20.200;2023-02-13T06:47:32;130.25;;;72.93;;
59294;SDS011;45067;44.654;20.200;2023-02-13T06:50:08;128.98;;;72.05;;
59294;SDS011;45067;44.654;20.200;2023-02-13T06:55:47;121.28;;;69.22;;
59294;SDS011;45067;44.654;20.200;2023-02-13T06:58:20;122.05;;;69.18;;
59294;SDS011;45067;44.654;20.200;2023-02-13T07:07:03;124.45;;;69.35;;
59294;SDS011;45067;44.654;20.200;2023-02-13T07:17:43;131.55;;;73.22;;
59294;SDS011;45067;44.654;20.200;2023-02-13T07:20:15;130.98;;;74.60;;
59294;SDS011;45067;44.654;20.200;2023-02-13T07:22:57;125.60;;;71.70;;
59294;SDS011;45067;44.654;20.200;2023-02-13T07:25:41;122.53;;;67.25;;
59294;SDS011;45067;44.654;20.200;2023-02-13T07:31:09;126.63;;;69.88;;
59294;SDS011;45067;44.654;20.200;2023-02-13T07:33:48;127.88;;;71.00;;
59294;SDS011;45067;44.654;20.200;2023-02-13T07:36:15;132.55;;;69.47;;
59294;SDS011;45067;44.654;20.200;2023-02-13T07:38:51;123.72;;;69.80;;
59294;SDS011;45067;44.654;20.200;2023-02-13T07:41:43;123.35;;;70.60;;
59294;SDS011;45067;44.654;20.200;2023-02-13T07:44:13;116.95;;;65.63;;
59294;SDS011;45067;44.654;20.200;2023-02-13T07:46:47;115.32;;;64.45;;
59294;SDS011;45067;44.654;20.200;2023-02-13T07:52:19;109.07;;;62.15;;
59294;SDS011;45067;44.654;20.200;2023-02-13T07:54:49;96.45;;;56.03;;
59294;SDS011;45067;44.654;20.200;2023-02-13T07:57:33;125.63;;;64.90;;
59294;SDS011;45067;44.654;20.200;2023-02-13T08:05:56;101.75;;;60.60;;
59294;SDS011;45067;44.654;20.200;2023-02-13T08:08:24;97.22;;;57.22;;
59294;SDS011;45067;44.654;20.200;2023-02-13T08:10:55;100.00;;;55.35;;
59294;SDS011;45067;44.654;20.200;2023-02-13T08:14:04;86.82;;;51.97;;
59294;SDS011;45067;44.654;20.200;2023-02-13T08:16:40;97.13;;;55.65;;
59294;SDS011;45067;44.654;20.200;2023-02-13T08:19:08;94.10;;;53.22;;
59294;SDS011;45067;44.654;20.200;2023-02-13T08:21:37;87.00;;;50.92;;
59294;SDS011;45067;44.654;20.200;2023-02-13T08:24:49;83.55;;;49.85;;
59294;SDS011;45067;44.654;20.200;2023-02-13T08:27:25;92.13;;;52.88;;
59294;SDS011;45067;44.654;20.200;2023-02-13T08:29:54;84.05;;;50.42;;
59294;SDS011;45067;44.654;20.200;2023-02-13T08:32:22;78.72;;;47.38;;
59294;SDS011;45067;44.654;20.200;2023-02-13T08:34:51;80.95;;;49.80;;
59294;SDS011;45067;44.654;20.200;2023-02-13T08:37:18;80.43;;;49.13;;
59294;SDS011;45067;44.654;20.200;2023-02-13T08:39:44;83.65;;;49.38;;
59294;SDS011;45067;44.654;20.200;2023-02-13T08:42:11;74.13;;;47.67;;
59294;SDS011;45067;44.654;20.200;2023-02-13T08:44:38;78.30;;;48.33;;
59294;SDS011;45067;44.654;20.200;2023-02-13T08:47:06;81.45;;;49.42;;
59294;SDS011;45067;44.654;20.200;2023-02-13T08:49:32;80.50;;;49.17;;
59294;SDS011;45067;44.654;20.200;2023-02-13T08:51:59;78.28;;;47.97;;
59294;SDS011;45067;44.654;20.200;2023-02-13T08:54:25;78.15;;;47.40;;
59294;SDS011;45067;44.654;20.200;2023-02-13T08:56:52;84.25;;;50.35;;
59294;SDS011;45067;44.654;20.200;2023-02-13T08:59:18;76.47;;;47.55;;
59294;SDS011;45067;44.654;20.200;2023-02-13T09:01:44;80.03;;;48.83;;
59294;SDS011;45067;44.654;20.200;2023-02-13T09:04:10;79.53;;;47.85;;
59294;SDS011;45067;44.654;20.200;2023-02-13T09:06:39;82.45;;;49.72;;
59294;SDS011;45067;44.654;20.200;2023-02-13T09:09:05;79.35;;;49.33;;
59294;SDS011;45067;44.654;20.200;2023-02-13T09:11:32;79.32;;;48.90;;
59294;SDS011;45067;44.654;20.200;2023-02-13T09:13:58;76.63;;;47.60;;
59294;SDS011;45067;44.654;20.200;2023-02-13T09:16:24;80.15;;;48.10;;
59294;SDS011;45067;44.654;20.200;2023-02-13T09:18:50;72.35;;;42.47;;
59294;SDS011;45067;44.654;20.200;2023-02-13T09:21:17;63.90;;;40.45;;
59294;SDS011;45067;44.654;20.200;2023-02-13T09:23:44;61.38;;;39.92;;
59294;SDS011;45067;44.654;20.200;2023-02-13T09:26:11;64.45;;;40.22;;
59294;SDS011;45067;44.654;20.200;2023-02-13T09:28:37;60.13;;;38.53;;
59294;SDS011;45067;44.654;20.200;2023-02-13T09:31:05;56.90;;;36.97;;
59294;SDS011;45067;44.654;20.200;2023-02-13T09:33:31;60.35;;;38.95;;
59294;SDS011;45067;44.654;20.200;2023-02-13T09:35:57;53.63;;;34.85;;
59294;SDS011;45067;44.654;20.200;2023-02-13T09:38:23;59.03;;;36.88;;
59294;SDS011;45067;44.654;20.200;2023-02-13T09:40:50;63.10;;;38.70;;
59294;SDS011;45067;44.654;20.200;2023-02-13T09:43:28;60.95;;;37.88;;
59294;SDS011;45067;44.654;20.200;2023-02-13T09:45:57;56.97;;;36.85;;
59294;SDS011;45067;44.654;20.200;2023-02-13T09:48:29;62.55;;;37.90;;
59294;SDS011;45067;44.654;20.200;2023-02-13T09:50:55;50.30;;;34.13;;
59294;SDS011;45067;44.654;20.200;2023-02-13T09:53:22;52.25;;;34.17;;
59294;SDS011;45067;44.654;20.200;2023-02-13T09:56:12;50.42;;;32.53;;
59294;SDS011;45067;44.654;20.200;2023-02-13T10:01:05;54.55;;;34.13;;
59294;SDS011;45067;44.654;20.200;2023-02-13T10:04:14;50.05;;;32.38;;
59294;SDS011;45067;44.654;20.200;2023-02-13T10:06:31;40.88;;;27.60;;
59294;SDS011;45067;44.654;20.200;2023-02-13T10:09:04;35.17;;;23.77;;
59294;SDS011;45067;44.654;20.200;2023-02-13T10:16:34;43.08;;;27.58;;
59294;SDS011;45067;44.654;20.200;2023-02-13T10:26:59;35.80;;;23.60;;
59294;SDS011;45067;44.654;20.200;2023-02-13T10:29:41;38.67;;;24.50;;
59294;SDS011;45067;44.654;20.200;2023-02-13T10:34:59;35.58;;;23.75;;
59294;SDS011;45067;44.654;20.200;2023-02-13T10:37:27;38.42;;;24.60;;
59294;SDS011;45067;44.654;20.200;2023-02-13T10:39:53;35.40;;;23.60;;
59294;SDS011;45067;44.654;20.200;2023-02-13T10:50:08;45.85;;;29.63;;
59294;SDS011;45067;44.654;20.200;2023-02-13T11:00:24;42.00;;;27.85;;
59294;SDS011;45067;44.654;20.200;2023-02-13T11:02:55;42.95;;;27.27;;
59294;SDS011;45067;44.654;20.200;2023-02-13T11:05:29;41.25;;;27.60;;
59294;SDS011;45067;44.654;20.200;2023-02-13T11:07:55;41.08;;;27.50;;
59294;SDS011;45067;44.654;20.200;2023-02-13T11:10:23;41.65;;;28.52;;
59294;SDS011;45067;44.654;20.200;2023-02-13T11:12:49;42.03;;;28.27;;
59294;SDS011;45067;44.654;20.200;2023-02-13T11:15:20;47.63;;;30.48;;
59294;SDS011;45067;44.654;20.200;2023-02-13T11:17:47;46.53;;;30.75;;
59294;SDS011;45067;44.654;20.200;2023-02-13T11:22:52;46.03;;;29.75;;
59294;SDS011;45067;44.654;20.200;2023-02-13T11:25:22;40.30;;;28.52;;
59294;SDS011;45067;44.654;20.200;2023-02-13T11:27:49;43.03;;;28.95;;
59294;SDS011;45067;44.654;20.200;2023-02-13T11:32:57;41.83;;;29.08;;
59294;SDS011;45067;44.654;20.200;2023-02-13T11:35:31;36.13;;;24.58;;
59294;SDS011;45067;44.654;20.200;2023-02-13T11:40:36;37.45;;;23.98;;
59294;SDS011;45067;44.654;20.200;2023-02-13T11:43:06;33.97;;;24.50;;
59294;SDS011;45067;44.654;20.200;2023-02-13T11:45:32;29.17;;;22.27;;
59294;SDS011;45067;44.654;20.200;2023-02-13T11:47:59;24.33;;;16.95;;
59294;SDS011;45067;44.654;20.200;2023-02-13T11:55:36;19.97;;;14.37;;
59294;SDS011;45067;44.654;20.200;2023-02-13T11:58:24;21.05;;;15.48;;
59294;SDS011;45067;44.654;20.200;2023-02-13T12:00:49;19.05;;;14.50;;
59294;SDS011;45067;44.654;20.200;2023-02-13T12:03:31;21.63;;;16.92;;
59294;SDS011;45067;44.654;20.200;2023-02-13T12:08:27;19.63;;;14.50;;
59294;SDS011;45067;44.654;20.200;2023-02-13T12:10:53;18.13;;;14.25;;
59294;SDS011;45067;44.654;20.200;2023-02-13T12:13:20;20.95;;;16.23;;
59294;SDS011;45067;44.654;20.200;2023-02-13T12:15:50;21.25;;;16.98;;
59294;SDS011;45067;44.654;20.200;2023-02-13T12:18:33;19.52;;;15.93;;
59294;SDS011;45067;44.654;20.200;2023-02-13T12:26:01;17.57;;;15.73;;
59294;SDS011;45067;44.654;20.200;2023-02-13T12:43:38;17.33;;;15.50;;
59294;SDS011;45067;44.654;20.200;2023-02-13T12:51:39;17.75;;;15.85;;
59294;SDS011;45067;44.654;20.200;2023-02-13T13:05:02;19.65;;;17.67;;
59294;SDS011;45067;44.654;20.200;2023-02-13T13:13:05;17.38;;;14.85;;
59294;SDS011;45067;44.654;20.200;2023-02-13T13:15:36;16.13;;;14.43;;
59294;SDS011;45067;44.654;20.200;2023-02-13T13:25:44;18.02;;;16.27;;
59294;SDS011;45067;44.654;20.200;2023-02-13T13:28:23;18.95;;;15.57;;
59294;SDS011;45067;44.654;20.200;2023-02-13T13:30:50;16.30;;;13.57;;
59294;SDS011;45067;44.654;20.200;2023-02-13T13:33:18;16.58;;;14.93;;
59294;SDS011;45067;44.654;20.200;2023-02-13T13:46:38;18.85;;;16.70;;
59294;SDS011;45067;44.654;20.200;2023-02-13T13:49:45;19.65;;;17.40;;
59294;SDS011;45067;44.654;20.200;2023-02-13T13:52:18;17.52;;;15.82;;
59294;SDS011;45067;44.654;20.200;2023-02-13T13:54:45;20.67;;;18.48;;
59294;SDS011;45067;44.654;20.200;2023-02-13T13:57:15;21.08;;;18.98;;
59294;SDS011;45067;44.654;20.200;2023-02-13T14:07:36;18.85;;;16.88;;
59294;SDS011;45067;44.654;20.200;2023-02-13T14:10:03;19.38;;;15.82;;
59294;SDS011;45067;44.654;20.200;2023-02-13T14:14:55;19.25;;;17.15;;
59294;SDS011;45067;44.654;20.200;2023-02-13T14:22:55;17.67;;;14.27;;
59294;SDS011;45067;44.654;20.200;2023-02-13T14:25:25;15.48;;;13.77;;
59294;SDS011;45067;44.654;20.200;2023-02-13T14:27:55;16.73;;;14.20;;
59294;SDS011;45067;44.654;20.200;2023-02-13T14:30:32;19.20;;;15.98;;
59294;SDS011;45067;44.654;20.200;2023-02-13T14:33:00;16.92;;;14.25;;
59294;SDS011;45067;44.654;20.200;2023-02-13T14:35:27;18.45;;;14.77;;
59294;SDS011;45067;44.654;20.200;2023-02-13T14:37:54;16.83;;;14.75;;
59294;SDS011;45067;44.654;20.200;2023-02-13T14:40:28;17.13;;;14.00;;
59294;SDS011;45067;44.654;20.200;2023-02-13T14:42:56;17.60;;;13.80;;
59294;SDS011;45067;44.654;20.200;2023-02-13T14:45:25;17.55;;;13.30;;
59294;SDS011;45067;44.654;20.200;2023-02-13T14:47:53;16.83;;;13.30;;
59294;SDS011;45067;44.654;20.200;2023-02-13T14:51:21;15.73;;;14.02;;
59294;SDS011;45067;44.654;20.200;2023-02-13T14:53:26;17.58;;;14.20;;
59294;SDS011;45067;44.654;20.200;2023-02-13T14:55:57;20.50;;;15.32;;
59294;SDS011;45067;44.654;20.200;2023-02-13T15:00:55;18.48;;;15.52;;
59294;SDS011;45067;44.654;20.200;2023-02-13T15:06:02;16.55;;;14.50;;
59294;SDS011;45067;44.654;20.200;2023-02-13T15:08:31;17.98;;;14.50;;
59294;SDS011;45067;44.654;20.200;2023-02-13T15:10:59;20.45;;;15.95;;
59294;SDS011;45067;44.654;20.200;2023-02-13T15:13:30;21.23;;;15.48;;
59294;SDS011;45067;44.654;20.200;2023-02-13T15:16:06;20.30;;;15.55;;
59294;SDS011;45067;44.654;20.200;2023-02-13T15:21:08;21.85;;;16.33;;
59294;SDS011;45067;44.654;20.200;2023-02-13T15:23:37;20.95;;;16.13;;
59294;SDS011;45067;44.654;20.200;2023-02-13T15:26:04;20.05;;;16.15;;
59294;SDS011;45067;44.654;20.200;2023-02-13T15:28:31;23.15;;;17.73;;
59294;SDS011;45067;44.654;20.200;2023-02-13T15:31:02;20.88;;;16.25;;
59294;SDS011;45067;44.654;20.200;2023-02-13T15:33:45;20.50;;;16.48;;
59294;SDS011;45067;44.654;20.200;2023-02-13T15:36:34;22.00;;;16.75;;
59294;SDS011;45067;44.654;20.200;2023-02-13T15:39:02;20.35;;;16.48;;
59294;SDS011;45067;44.654;20.200;2023-02-13T15:41:35;25.48;;;16.98;;
59294;SDS011;45067;44.654;20.200;2023-02-13T15:44:02;21.98;;;15.73;;
59294;SDS011;45067;44.654;20.200;2023-02-13T15:46:32;19.80;;;15.90;;
59294;SDS011;45067;44.654;20.200;2023-02-13T15:49:06;20.00;;;15.55;;
59294;SDS011;45067;44.654;20.200;2023-02-13T15:51:32;19.67;;;15.90;;
59294;SDS011;45067;44.654;20.200;2023-02-13T15:54:05;21.08;;;16.50;;
59294;SDS011;45067;44.654;20.200;2023-02-13T15:56:32;22.63;;;16.20;;
59294;SDS011;45067;44.654;20.200;2023-02-13T15:58:59;23.13;;;16.30;;
59294;SDS011;45067;44.654;20.200;2023-02-13T16:01:25;20.35;;;15.43;;
59294;SDS011;45067;44.654;20.200;2023-02-13T16:04:05;21.48;;;16.77;;
59294;SDS011;45067;44.654;20.200;2023-02-13T16:06:31;23.13;;;17.27;;
59294;SDS011;45067;44.654;20.200;2023-02-13T16:08:58;25.35;;;16.23;;
59294;SDS011;45067;44.654;20.200;2023-02-13T16:19:21;26.15;;;18.13;;
59294;SDS011;45067;44.654;20.200;2023-02-13T16:21:48;27.10;;;18.10;;
59294;SDS011;45067;44.654;20.200;2023-02-13T16:24:14;29.95;;;19.70;;
59294;SDS011;45067;44.654;20.200;2023-02-13T16:26:41;28.90;;;18.95;;
59294;SDS011;45067;44.654;20.200;2023-02-13T16:29:09;27.95;;;18.58;;
59294;SDS011;45067;44.654;20.200;2023-02-13T16:31:35;30.77;;;19.35;;
59294;SDS011;45067;44.654;20.200;2023-02-13T16:34:12;49.05;;;37.55;;
59294;SDS011;45067;44.654;20.200;2023-02-13T16:36:38;32.08;;;23.27;;
59294;SDS011;45067;44.654;20.200;2023-02-13T16:39:16;38.65;;;26.58;;
59294;SDS011;45067;44.654;20.200;2023-02-13T16:41:43;50.28;;;39.15;;
59294;SDS011;45067;44.654;20.200;2023-02-13T16:44:23;39.28;;;25.45;;
59294;SDS011;45067;44.654;20.200;2023-02-13T16:46:51;36.15;;;23.58;;
59294;SDS011;45067;44.654;20.200;2023-02-13T16:49:21;38.95;;;27.58;;
59294;SDS011;45067;44.654;20.200;2023-02-13T16:54:22;31.05;;;21.42;;
59294;SDS011;45067;44.654;20.200;2023-02-13T16:56:53;34.78;;;23.35;;
59294;SDS011;45067;44.654;20.200;2023-02-13T17:02:12;33.63;;;22.50;;
59294;SDS011;45067;44.654;20.200;2023-02-13T17:04:39;30.50;;;21.90;;
59294;SDS011;45067;44.654;20.200;2023-02-13T17:07:10;33.35;;;22.15;;
59294;SDS011;45067;44.654;20.200;2023-02-13T17:09:36;32.55;;;21.88;;
59294;SDS011;45067;44.654;20.200;2023-02-13T17:12:02;33.30;;;22.38;;
59294;SDS011;45067;44.654;20.200;2023-02-13T17:14:29;34.55;;;23.13;;
59294;SDS011;45067;44.654;20.200;2023-02-13T17:16:55;35.00;;;24.33;;
59294;SDS011;45067;44.654;20.200;2023-02-13T17:19:21;34.92;;;24.58;;
59294;SDS011;45067;44.654;20.200;2023-02-13T17:21:47;35.53;;;24.40;;
59294;SDS011;45067;44.654;20.200;2023-02-13T17:24:17;32.13;;;24.52;;
59294;SDS011;45067;44.654;20.200;2023-02-13T17:26:43;33.40;;;24.45;;
59294;SDS011;45067;44.654;20.200;2023-02-13T17:29:09;39.10;;;25.70;;
59294;SDS011;45067;44.654;20.200;2023-02-13T17:31:35;42.75;;;26.60;;
59294;SDS011;45067;44.654;20.200;2023-02-13T17:34:01;39.17;;;25.02;;
59294;SDS011;45067;44.654;20.200;2023-02-13T17:36:27;41.42;;;24.88;;
59294;SDS011;45067;44.654;20.200;2023-02-13T17:38:53;43.15;;;25.60;;
59294;SDS011;45067;44.654;20.200;2023-02-13T17:41:19;37.40;;;25.15;;
59294;SDS011;45067;44.654;20.200;2023-02-13T17:43:45;42.22;;;26.38;;
59294;SDS011;45067;44.654;20.200;2023-02-13T17:46:11;46.05;;;27.77;;
59294;SDS011;45067;44.654;20.200;2023-02-13T17:48:40;42.53;;;28.10;;
59294;SDS011;45067;44.654;20.200;2023-02-13T17:51:08;42.33;;;28.92;;
59294;SDS011;45067;44.654;20.200;2023-02-13T17:53:35;44.80;;;28.48;;
59294;SDS011;45067;44.654;20.200;2023-02-13T17:56:01;39.33;;;26.30;;
59294;SDS011;45067;44.654;20.200;2023-02-13T17:58:27;40.05;;;26.02;;
59294;SDS011;45067;44.654;20.200;2023-02-13T18:00:53;45.20;;;26.75;;
59294;SDS011;45067;44.654;20.200;2023-02-13T18:03:19;39.75;;;25.67;;
59294;SDS011;45067;44.654;20.200;2023-02-13T18:05:46;47.65;;;29.67;;
59294;SDS011;45067;44.654;20.200;2023-02-13T18:11:22;58.58;;;32.65;;
59294;SDS011;45067;44.654;20.200;2023-02-13T18:29:16;51.25;;;30.83;;
59294;SDS011;45067;44.654;20.200;2023-02-13T18:34:28;43.13;;;26.48;;
59294;SDS011;45067;44.654;20.200;2023-02-13T18:37:03;36.05;;;22.90;;
59294;SDS011;45067;44.654;20.200;2023-02-13T18:39:35;36.15;;;23.67;;
59294;SDS011;45067;44.654;20.200;2023-02-13T18:42:02;41.35;;;24.73;;
59294;SDS011;45067;44.654;20.200;2023-02-13T18:44:41;45.65;;;25.88;;
59294;SDS011;45067;44.654;20.200;2023-02-13T18:47:07;50.83;;;29.00;;
59294;SDS011;45067;44.654;20.200;2023-02-13T18:49:34;40.83;;;24.58;;
59294;SDS011;45067;44.654;20.200;2023-02-13T18:52:00;62.28;;;35.35;;
59294;SDS011;45067;44.654;20.200;2023-02-13T18:54:28;48.80;;;30.67;;
59294;SDS011;45067;44.654;20.200;2023-02-13T18:56:54;56.83;;;32.17;;
59294;SDS011;45067;44.654;20.200;2023-02-13T18:59:20;103.40;;;57.80;;
59294;SDS011;45067;44.654;20.200;2023-02-13T19:01:47;131.73;;;66.53;;
59294;SDS011;45067;44.654;20.200;2023-02-13T19:04:13;94.28;;;54.13;;
59294;SDS011;45067;44.654;20.200;2023-02-13T19:06:40;111.07;;;59.67;;
59294;SDS011;45067;44.654;20.200;2023-02-13T19:09:07;132.80;;;70.97;;
59294;SDS011;45067;44.654;20.200;2023-02-13T19:11:36;153.20;;;82.70;;
59294;SDS011;45067;44.654;20.200;2023-02-13T19:14:03;124.13;;;70.65;;
59294;SDS011;45067;44.654;20.200;2023-02-13T19:16:30;118.88;;;67.10;;
59294;SDS011;45067;44.654;20.200;2023-02-13T19:18:58;123.72;;;69.85;;
59294;SDS011;45067;44.654;20.200;2023-02-13T19:21:30;113.40;;;64.68;;